Time;durP1;ratioP1;P1;durP2;ratioP2;P2;SDS_P1;SDS_P2;PMS_P1;PMS_P2;Temp;Humidity;BMP_temperature;BMP_pressure;BME280_temperature;BME280_humidity;BME280_pressure;Samples;Min_cycle;Max_cycle;Signal;HPM_P1;HPM_P2
2021/11/21 00:00:25;;;;;;;59.08;11.18;;;;;;;0.99;100.00;95488.75;5027635;28;20095;-75
2021/11/21 00:03:10;;;;;;;27.40;9.32;;;;;;;0.99;100.00;95478.41;5021451;28;20148;-75
2021/11/21 00:05:40;;;;;;;54.63;10.82;;;;;;;0.98;100.00;95472.44;5026393;28;20068;-76
2021/11/21 00:08:07;;;;;;;38.78;10.75;;;;;;;0.94;100.00;95460.09;5027567;28;20041;-75
2021/11/21 00:10:34;;;;;;;35.58;9.60;;;;;;;0.89;100.00;95472.88;5027800;28;20041;-74
2021/11/21 00:13:00;;;;;;;38.25;9.88;;;;;;;0.90;100.00;95464.13;5025866;28;20427;-75
2021/11/21 00:15:26;;;;;;;72.90;10.15;;;;;;;0.88;100.00;95471.28;5021094;28;20052;-75
2021/11/21 00:17:52;;;;;;;41.42;9.85;;;;;;;0.77;100.00;95460.59;5023592;28;20041;-75
2021/11/21 00:20:17;;;;;;;49.08;9.43;;;;;;;0.77;100.00;95463.19;5037030;28;20041;-75
2021/11/21 00:22:45;;;;;;;67.47;10.00;;;;;;;0.70;100.00;95454.66;5027679;28;20526;-75
2021/11/21 00:25:10;;;;;;;48.88;8.82;;;;;;;0.70;100.00;95457.25;5030179;28;20053;-76
2021/11/21 00:27:36;;;;;;;41.80;9.35;;;;;;;0.66;100.00;95448.28;5046186;28;20041;-75
2021/11/21 00:30:02;;;;;;;45.85;8.27;;;;;;;0.63;100.00;95449.53;5031918;28;20045;-75
2021/11/21 00:32:27;;;;;;;47.97;9.40;;;;;;;0.64;100.00;95445.13;5046802;28;20045;-74
2021/11/21 00:34:53;;;;;;;25.30;8.45;;;;;;;0.65;100.00;95436.38;5023605;28;20100;-75
2021/11/21 00:37:18;;;;;;;25.77;7.38;;;;;;;0.64;100.00;95439.94;5031086;28;20116;-76
2021/11/21 00:39:44;;;;;;;22.00;8.05;;;;;;;0.63;100.00;95443.53;5031548;28;20070;-75
2021/11/21 00:42:10;;;;;;;34.20;8.25;;;;;;;0.63;100.00;95440.94;5031715;28;20455;-76
2021/11/21 00:44:36;;;;;;;18.70;7.57;;;;;;;0.60;100.00;95424.03;5023218;28;20566;-75
2021/11/21 00:47:01;;;;;;;23.77;9.15;;;;;;;0.70;100.00;95428.75;5029660;28;20076;-75
2021/11/21 00:49:27;;;;;;;22.95;8.85;;;;;;;0.67;100.00;95424.00;5031631;28;20120;-76
2021/11/21 00:51:53;;;;;;;24.13;8.55;;;;;;;0.71;100.00;95425.16;5031493;28;20052;-75
2021/11/21 00:57:03;;;;;;;44.47;9.15;;;;;;;0.58;100.00;95409.72;5030534;28;20088;-75
2021/11/21 00:59:28;;;;;;;40.55;8.32;;;;;;;0.57;100.00;95402.94;5029734;28;20041;-76
2021/11/21 01:01:54;;;;;;;25.15;8.52;;;;;;;0.60;100.00;95398.13;5018863;28;20484;-75
2021/11/21 01:04:20;;;;;;;35.45;8.68;;;;;;;0.62;100.00;95410.88;5026198;28;20124;-75
2021/11/21 01:06:46;;;;;;;34.05;7.57;;;;;;;0.55;100.00;95404.94;5024319;28;20046;-75
2021/11/21 01:09:12;;;;;;;50.10;7.13;;;;;;;0.42;100.00;95396.25;5022596;28;20051;-75
2021/11/21 01:11:38;;;;;;;95.72;9.15;;;;;;;0.28;100.00;95394.75;5030992;28;20120;-75
2021/11/21 01:14:05;;;;;;;35.88;8.27;;;;;;;0.27;100.00;95400.91;5030187;28;20037;-74
2021/11/21 01:16:31;;;;;;;50.13;8.15;;;;;;;0.36;100.00;95394.50;5030523;28;20049;-76
2021/11/21 01:18:57;;;;;;;23.38;8.15;;;;;;;0.34;100.00;95383.53;5030783;28;20041;-75
2021/11/21 01:21:22;;;;;;;30.85;8.57;;;;;;;0.29;100.00;95380.81;5031079;28;20516;-75
2021/11/21 01:23:48;;;;;;;21.48;7.85;;;;;;;0.37;100.00;95377.94;5029331;28;20525;-76
2021/11/21 01:26:14;;;;;;;35.67;7.40;;;;;;;0.28;100.00;95374.81;5028609;28;20112;-75
2021/11/21 01:28:39;;;;;;;55.63;8.20;;;;;;;0.27;100.00;95377.63;5030607;28;20745;-76
2021/11/21 01:31:05;;;;;;;33.85;7.95;;;;;;;0.17;100.00;95368.50;5028417;28;20077;-75
2021/11/21 01:33:31;;;;;;;16.80;7.03;;;;;;;0.19;100.00;95373.47;5019145;28;20148;-75
2021/11/21 01:35:56;;;;;;;14.98;7.18;;;;;;;0.07;100.00;95368.16;5029354;28;20595;-74
2021/11/21 01:38:22;;;;;;;15.93;7.38;;;;;;;0.07;100.00;95363.00;5030968;28;21993;-75
2021/11/21 01:40:48;;;;;;;18.23;7.85;;;;;;;0.15;100.00;95360.16;5030718;28;20124;-76
2021/11/21 01:43:14;;;;;;;30.27;7.53;;;;;;;0.24;100.00;95352.16;5029962;28;20048;-75
2021/11/21 01:45:39;;;;;;;20.00;6.85;;;;;;;0.28;100.00;95353.31;5028788;28;20461;-75
2021/11/21 01:48:05;;;;;;;40.15;7.50;;;;;;;0.23;100.00;95353.97;5030054;28;20497;-76
2021/11/21 01:50:34;;;;;;;27.70;7.82;;;;;;;0.09;100.00;95339.50;5020444;28;20837;-75
2021/11/21 01:53:00;;;;;;;28.20;7.18;;;;;;;0.04;100.00;95337.50;5030188;28;20510;-76
2021/11/21 01:55:26;;;;;;;13.27;5.63;;;;;;;0.00;100.00;95336.38;5029259;28;20045;-76
2021/11/21 01:57:53;;;;;;;16.52;5.90;;;;;;;-0.02;100.00;95338.34;5029286;28;20053;-75
2021/11/21 02:00:21;;;;;;;22.38;5.95;;;;;;;-0.13;100.00;95331.22;5029952;28;20057;-76
2021/11/21 02:02:48;;;;;;;18.45;6.07;;;;;;;-0.24;100.00;95325.72;5030157;28;20056;-75
2021/11/21 02:05:13;;;;;;;13.20;5.50;;;;;;;-0.33;100.00;95311.44;5028701;28;20050;-76
2021/11/21 02:07:41;;;;;;;34.08;5.63;;;;;;;-0.36;100.00;95311.81;5039664;28;20041;-76
2021/11/21 02:10:09;;;;;;;9.15;5.32;;;;;;;-0.37;100.00;95310.25;5018112;28;20045;-75
2021/11/21 02:12:34;;;;;;;16.60;5.75;;;;;;;-0.41;100.00;95301.31;5027507;28;20046;-76
2021/11/21 02:15:00;;;;;;;13.23;4.57;;;;;;;-0.40;100.00;95302.91;5028007;28;20045;-75
2021/11/21 02:17:27;;;;;;;41.90;7.00;;;;;;;-0.43;100.00;95300.72;5029835;28;20082;-75
2021/11/21 02:19:53;;;;;;;23.60;6.10;;;;;;;-0.46;100.00;95303.72;5029161;28;20044;-75
2021/11/21 02:22:19;;;;;;;30.92;6.13;;;;;;;-0.40;100.00;95305.50;5035587;28;20045;-75
2021/11/21 02:24:45;;;;;;;17.10;5.80;;;;;;;-0.43;100.00;95298.13;5028945;28;20428;-75
2021/11/21 02:27:18;;;;;;;23.08;6.70;;;;;;;-0.60;100.00;95301.19;5029325;28;20124;-75
2021/11/21 02:29:43;;;;;;;23.73;6.43;;;;;;;-0.67;100.00;95295.25;5029497;28;20041;-75
2021/11/21 02:32:09;;;;;;;43.20;6.18;;;;;;;-0.56;100.00;95294.63;5020126;28;20423;-74
2021/11/21 02:34:35;;;;;;;51.53;6.80;;;;;;;-0.62;100.00;95292.81;5029386;28;20041;-75
2021/11/21 02:37:00;;;;;;;37.75;5.93;;;;;;;-0.58;100.00;95283.66;5028870;28;20042;-76
2021/11/21 02:39:27;;;;;;;16.40;5.43;;;;;;;-0.61;100.00;95284.06;5028263;28;20132;-74
2021/11/21 02:41:52;;;;;;;31.95;5.78;;;;;;;-0.75;100.00;95272.19;5038540;28;20049;-75
2021/11/21 02:44:18;;;;;;;26.30;5.85;;;;;;;-0.98;100.00;95273.44;5030938;28;20049;-75
2021/11/21 02:46:43;;;;;;;15.73;5.07;;;;;;;-0.73;100.00;95275.38;5024619;28;20410;-76
2021/11/21 02:49:09;;;;;;;11.20;4.93;;;;;;;-0.71;100.00;95270.81;5032652;28;20045;-75
2021/11/21 02:51:34;;;;;;;20.45;5.15;;;;;;;-0.74;100.00;95263.47;5024662;28;20041;-75
2021/11/21 02:54:00;;;;;;;20.08;4.97;;;;;;;-0.77;100.00;95253.53;5029271;28;20582;-75
2021/11/21 02:56:27;;;;;;;15.80;4.95;;;;;;;-0.75;100.00;95251.53;5028272;28;20049;-75
2021/11/21 02:58:53;;;;;;;15.25;5.07;;;;;;;-0.76;100.00;95244.75;5028296;28;20396;-74
2021/11/21 03:01:24;;;;;;;11.18;4.60;;;;;;;-0.77;100.00;95240.63;5021737;28;20076;-76
2021/11/21 03:03:51;;;;;;;12.98;4.90;;;;;;;-0.83;100.00;95228.50;5027427;28;20049;-76
2021/11/21 03:06:17;;;;;;;9.50;4.82;;;;;;;-0.83;100.00;95239.63;5026634;28;20055;-75
2021/11/21 03:08:43;;;;;;;18.55;4.95;;;;;;;-0.88;100.00;95242.84;5008292;28;20462;-76
2021/11/21 03:11:25;;;;;;;33.00;4.88;;;;;;;-0.89;100.00;95230.91;5023851;28;20049;-74
2021/11/21 03:13:51;;;;;;;31.23;5.18;;;;;;;-0.88;100.00;95232.50;5017830;28;20190;-75
2021/11/21 03:16:16;;;;;;;41.55;5.20;;;;;;;-0.89;100.00;95220.56;5028227;28;20049;-75
2021/11/21 03:18:42;;;;;;;30.42;4.63;;;;;;;-0.94;100.00;95227.34;5026380;28;20069;-75
2021/11/21 03:21:08;;;;;;;17.95;4.57;;;;;;;-1.08;100.00;95219.66;5023199;28;20041;-75
2021/11/21 03:23:33;;;;;;;72.82;6.35;;;;;;;-1.05;100.00;95210.69;5039857;28;20046;-75
2021/11/21 03:25:59;;;;;;;33.13;6.03;;;;;;;-1.36;100.00;95209.56;5019657;28;20113;-76
2021/11/21 03:28:25;;;;;;;17.75;5.53;;;;;;;-1.10;100.00;95206.13;5027684;28;20103;-76
2021/11/21 03:30:50;;;;;;;29.65;5.30;;;;;;;-1.11;100.00;95201.16;5026748;28;20048;-75
2021/11/21 03:33:16;;;;;;;11.45;4.63;;;;;;;-1.17;100.00;95202.00;5021560;28;20141;-76
2021/11/21 03:35:42;;;;;;;9.77;4.82;;;;;;;-1.20;100.00;95197.22;5016462;28;20041;-75
2021/11/21 03:38:08;;;;;;;11.93;4.93;;;;;;;-1.13;100.00;95183.28;5008892;28;20499;-75
2021/11/21 03:40:33;;;;;;;18.23;4.72;;;;;;;-1.19;100.00;95183.31;5015547;28;20103;-75
2021/11/21 03:43:00;;;;;;;15.27;4.45;;;;;;;-1.08;100.00;95187.84;5020096;28;20499;-76
2021/11/21 03:45:26;;;;;;;25.75;4.70;;;;;;;-1.10;100.00;95193.22;5027307;28;20076;-74
2021/11/21 03:47:52;;;;;;;38.45;5.03;;;;;;;-1.20;100.00;95179.94;5028250;28;20056;-74
2021/11/21 03:50:18;;;;;;;34.53;5.10;;;;;;;-1.25;100.00;95175.41;5027998;28;20415;-75
2021/11/21 03:52:44;;;;;;;45.85;5.32;;;;;;;-1.53;100.00;95177.44;5025521;28;20037;-74
2021/11/21 03:55:12;;;;;;;33.95;4.90;;;;;;;-1.38;100.00;95174.63;5023582;28;20120;-76
2021/11/21 03:57:38;;;;;;;35.17;5.03;;;;;;;-1.55;100.00;95167.31;5027574;28;20049;-74
2021/11/21 04:00:11;;;;;;;14.02;4.50;;;;;;;-1.35;100.00;95179.38;5030770;28;20045;-75
2021/11/21 04:02:36;;;;;;;16.38;4.20;;;;;;;-1.38;100.00;95175.41;5020225;28;20545;-75
2021/11/21 04:05:03;;;;;;;16.65;4.35;;;;;;;-1.52;100.00;95168.69;5019986;28;20085;-75
2021/11/21 04:07:31;;;;;;;11.77;4.30;;;;;;;-1.62;100.00;95164.75;5026442;28;20471;-76
2021/11/21 04:09:57;;;;;;;16.17;4.43;;;;;;;-1.65;100.00;95160.00;5028028;28;20048;-75
2021/11/21 04:12:22;;;;;;;12.02;4.60;;;;;;;-1.66;100.00;95163.56;5019657;28;20042;-75
2021/11/21 04:14:48;;;;;;;14.68;4.65;;;;;;;-1.65;100.00;95170.31;5025498;28;20048;-75
2021/11/21 04:17:13;;;;;;;8.65;3.90;;;;;;;-1.69;100.00;95163.97;5027542;28;20044;-75
2021/11/21 04:19:39;;;;;;;14.75;4.20;;;;;;;-1.85;100.00;95169.53;5027635;28;20029;-76
2021/11/21 04:22:04;;;;;;;10.18;4.10;;;;;;;-1.78;100.00;95163.38;5027622;28;20487;-74
2021/11/21 04:24:30;;;;;;;10.48;4.50;;;;;;;-1.80;100.00;95172.31;5016430;28;20057;-76
2021/11/21 04:26:55;;;;;;;8.85;4.40;;;;;;;-1.79;100.00;95164.38;5017877;28;20557;-75
2021/11/21 04:29:21;;;;;;;7.75;4.28;;;;;;;-1.62;100.00;95162.16;5017372;28;20557;-75
2021/11/21 04:31:48;;;;;;;9.43;3.83;;;;;;;-1.31;100.00;95155.53;5026171;28;20096;-74
2021/11/21 04:34:14;;;;;;;10.45;4.40;;;;;;;-1.57;100.00;95156.41;5034694;28;20450;-75
2021/11/21 04:36:40;;;;;;;6.63;4.15;;;;;;;-1.69;100.00;95163.97;5024379;28;20042;-76
2021/11/21 04:39:05;;;;;;;8.45;4.50;;;;;;;-1.71;100.00;95155.66;5027612;28;20073;-75
2021/11/21 04:41:31;;;;;;;13.68;4.60;;;;;;;-1.55;100.00;95158.78;5027274;28;20042;-74
2021/11/21 04:43:57;;;;;;;17.35;5.15;;;;;;;-1.50;100.00;95146.84;5027435;28;20142;-75
2021/11/21 04:46:25;;;;;;;17.40;5.38;;;;;;;-1.51;100.00;95149.63;5026491;28;20518;-74
2021/11/21 04:48:51;;;;;;;16.75;5.45;;;;;;;-1.51;100.00;95154.78;5019233;28;20511;-75
2021/11/21 04:51:16;;;;;;;52.83;6.90;;;;;;;-1.53;100.00;95146.47;5022937;28;20052;-75
2021/11/21 04:53:42;;;;;;;72.35;7.65;;;;;;;-1.53;100.00;95147.25;5025553;28;20048;-76
2021/11/21 04:56:07;;;;;;;20.65;5.63;;;;;;;-1.38;100.00;95144.44;5026269;28;20042;-74
2021/11/21 04:58:33;;;;;;;29.77;5.63;;;;;;;-1.35;100.00;95144.06;5026438;28;20710;-74
2021/11/21 05:00:59;;;;;;;90.13;7.35;;;;;;;-1.35;100.00;95144.06;5025915;28;20118;-74
2021/11/21 05:03:24;;;;;;;65.13;7.28;;;;;;;-1.20;100.00;95140.44;5026126;28;20040;-75
2021/11/21 05:05:50;;;;;;;57.80;7.47;;;;;;;-1.30;100.00;95136.47;5026940;28;20044;-75
2021/11/21 05:08:15;;;;;;;47.35;7.30;;;;;;;-1.30;100.00;95135.69;5024618;28;20121;-74
2021/11/21 05:10:41;;;;;;;16.88;6.38;;;;;;;-1.22;100.00;95131.09;5034088;28;20057;-75
2021/11/21 05:13:06;;;;;;;61.22;7.55;;;;;;;-1.20;100.00;95127.53;5030025;28;20045;-75
2021/11/21 05:15:32;;;;;;;14.52;6.53;;;;;;;-1.18;100.00;95130.69;5030823;28;20049;-75
2021/11/21 05:17:58;;;;;;;15.30;6.07;;;;;;;-1.00;100.00;95125.63;5028309;28;20068;-74
2021/11/21 05:20:24;;;;;;;17.38;6.30;;;;;;;-0.99;100.00;95127.22;5046066;28;20046;-74
2021/11/21 05:22:49;;;;;;;16.25;6.57;;;;;;;-1.08;100.00;95123.28;5029504;28;20091;-75
2021/11/21 05:25:16;;;;;;;31.52;6.28;;;;;;;-0.91;100.00;95129.56;5029529;28;20426;-74
2021/11/21 05:27:43;;;;;;;15.77;5.43;;;;;;;-1.05;100.00;95115.13;5028641;28;20674;-76
2021/11/21 05:30:09;;;;;;;13.13;5.68;;;;;;;-1.09;100.00;95121.72;5027552;28;20095;-76
2021/11/21 05:32:35;;;;;;;12.60;5.00;;;;;;;-0.88;100.00;95121.41;5029609;28;20054;-75
2021/11/21 05:35:01;;;;;;;16.45;5.28;;;;;;;-0.77;100.00;95114.78;5029072;28;20513;-75
2021/11/21 05:37:26;;;;;;;29.25;5.65;;;;;;;-0.84;100.00;95114.03;5029044;28;20077;-74
2021/11/21 05:39:52;;;;;;;9.57;5.47;;;;;;;-0.91;100.00;95108.88;5029564;28;20454;-75
2021/11/21 05:42:17;;;;;;;47.85;5.88;;;;;;;-0.94;100.00;95109.31;5039987;28;20103;-75
2021/11/21 05:44:43;;;;;;;53.80;6.53;;;;;;;-1.01;100.00;95113.72;5037274;28;20041;-75
2021/11/21 05:47:08;;;;;;;37.03;5.97;;;;;;;-0.99;100.00;95116.91;5040365;28;20045;-75
2021/11/21 05:49:34;;;;;;;39.03;6.30;;;;;;;-0.84;100.00;95115.84;5038765;28;20056;-75
2021/11/21 05:51:59;;;;;;;44.10;5.63;;;;;;;-0.80;100.00;95114.44;5041952;28;20045;-75
2021/11/21 05:54:25;;;;;;;21.20;5.43;;;;;;;-0.92;100.00;95117.66;5034740;28;20047;-74
2021/11/21 05:56:51;;;;;;;39.78;6.07;;;;;;;-1.07;100.00;95109.38;5037162;28;20053;-74
2021/11/21 05:59:16;;;;;;;40.47;6.38;;;;;;;-1.05;100.00;95102.19;5045106;28;20044;-75
2021/11/21 06:01:42;;;;;;;25.75;5.57;;;;;;;-0.96;100.00;95107.91;5029568;28;22220;-75
2021/11/21 06:04:07;;;;;;;49.90;6.65;;;;;;;-1.00;100.00;95101.59;5029374;28;20041;-76
2021/11/21 06:06:33;;;;;;;31.65;6.35;;;;;;;-0.91;100.00;95098.56;5027152;28;20041;-75
2021/11/21 06:09:00;;;;;;;25.13;5.75;;;;;;;-0.67;100.00;95093.66;5028210;28;20038;-74
2021/11/21 06:11:25;;;;;;;32.55;5.90;;;;;;;-0.63;100.00;95084.50;5029611;28;20042;-75
2021/11/21 06:13:51;;;;;;;37.90;5.90;;;;;;;-0.64;100.00;95075.16;5029618;28;20047;-75
2021/11/21 06:16:16;;;;;;;19.15;6.03;;;;;;;-0.72;100.00;95080.56;5028946;28;20045;-75
2021/11/21 06:18:42;;;;;;;27.35;5.72;;;;;;;-0.74;100.00;95073.03;5028469;28;20491;-75
2021/11/21 06:21:07;;;;;;;15.45;5.57;;;;;;;-0.72;100.00;95075.41;5028881;28;20045;-75
2021/11/21 06:23:34;;;;;;;41.38;5.70;;;;;;;-0.71;100.00;95075.19;5021901;28;20034;-74
2021/11/21 06:26:03;;;;;;;53.42;6.60;;;;;;;-0.79;100.00;95074.66;5026691;28;20038;-75
2021/11/21 06:28:28;;;;;;;16.38;5.38;;;;;;;-0.85;100.00;95067.75;5028546;28;20159;-75
2021/11/21 06:30:54;;;;;;;9.82;5.07;;;;;;;-0.82;100.00;95080.22;5027308;28;20034;-75
2021/11/21 06:33:20;;;;;;;16.40;4.85;;;;;;;-0.80;100.00;95067.91;5029526;28;20042;-74
2021/11/21 06:35:45;;;;;;;46.35;5.93;;;;;;;-0.80;100.00;95062.75;5027490;28;20049;-75
2021/11/21 06:38:14;;;;;;;12.55;5.05;;;;;;;-0.74;100.00;95061.91;5021524;28;20050;-75
2021/11/21 06:40:39;;;;;;;33.92;4.40;;;;;;;-0.77;100.00;95062.31;5027296;28;20065;-75
2021/11/21 06:43:05;;;;;;;29.50;4.80;;;;;;;-0.83;100.00;95063.94;5028533;28;20104;-75
2021/11/21 06:45:31;;;;;;;13.98;5.18;;;;;;;-0.87;100.00;95066.16;5028681;28;20046;-75
2021/11/21 06:47:56;;;;;;;20.85;5.05;;;;;;;-0.97;100.00;95065.81;5028659;28;20532;-75
2021/11/21 06:50:22;;;;;;;9.02;4.28;;;;;;;-0.92;100.00;95071.16;5028253;28;20491;-75
2021/11/21 06:52:48;;;;;;;9.98;4.45;;;;;;;-1.00;100.00;95076.56;5028179;28;20037;-74
2021/11/21 06:55:16;;;;;;;15.80;4.68;;;;;;;-1.14;100.00;95072.47;5027286;28;20507;-75
2021/11/21 06:57:42;;;;;;;19.30;5.18;;;;;;;-1.13;100.00;95068.91;5027835;28;20045;-74
2021/11/21 07:00:14;;;;;;;12.98;5.00;;;;;;;-1.06;100.00;95064.47;5028053;28;20068;-75
2021/11/21 07:02:40;;;;;;;12.13;4.90;;;;;;;-1.11;100.00;95074.63;5028323;28;20483;-75
2021/11/21 07:05:06;;;;;;;18.83;4.68;;;;;;;-1.07;100.00;95073.22;5029292;28;20052;-75
2021/11/21 07:07:31;;;;;;;39.03;5.20;;;;;;;-1.30;100.00;95064.19;5026909;28;20049;-74
2021/11/21 07:09:57;;;;;;;29.05;5.18;;;;;;;-1.32;100.00;95068.78;5026936;28;20045;-75
2021/11/21 07:12:22;;;;;;;49.97;6.07;;;;;;;-1.55;100.00;95071.84;5005057;28;20041;-74
2021/11/21 07:14:48;;;;;;;38.05;5.43;;;;;;;-1.61;100.00;95068.28;5026205;28;20407;-74
2021/11/21 07:17:14;;;;;;;18.17;5.07;;;;;;;-1.34;100.00;95063.00;5027449;28;20045;-75
2021/11/21 07:19:39;;;;;;;9.07;4.85;;;;;;;-1.46;100.00;95069.81;5027169;28;20041;-75
2021/11/21 07:22:05;;;;;;;25.13;4.97;;;;;;;-1.17;100.00;95073.66;5028262;28;20050;-75
2021/11/21 07:24:31;;;;;;;14.13;4.90;;;;;;;-1.10;100.00;95063.31;5027400;28;20045;-75
2021/11/21 07:26:59;;;;;;;13.02;4.70;;;;;;;-1.20;100.00;95068.13;5025297;28;20050;-75
2021/11/21 07:29:29;;;;;;;19.02;5.22;;;;;;;-1.27;100.00;95068.16;5027600;28;20503;-75
2021/11/21 07:32:01;;;;;;;10.27;4.85;;;;;;;-1.18;100.00;95068.72;5027409;28;20120;-75
2021/11/21 07:34:27;;;;;;;15.50;4.90;;;;;;;-1.41;100.00;95067.41;5028167;28;20767;-74
2021/11/21 07:36:53;;;;;;;14.73;5.07;;;;;;;-1.44;100.00;95067.81;5027389;28;20053;-74
2021/11/21 07:39:19;;;;;;;20.77;4.95;;;;;;;-1.45;100.00;95066.22;5026494;28;20033;-74
2021/11/21 07:41:45;;;;;;;17.15;5.70;;;;;;;-1.36;100.00;95065.00;5026139;28;20100;-74
2021/11/21 07:44:10;;;;;;;16.48;5.65;;;;;;;-1.30;100.00;95073.72;5026353;28;20056;-74
2021/11/21 07:46:37;;;;;;;43.38;6.28;;;;;;;-1.31;100.00;95065.19;5026505;28;20415;-74
2021/11/21 07:49:03;;;;;;;18.38;6.20;;;;;;;-1.24;100.00;95065.94;5027701;28;20072;-74
2021/11/21 07:51:29;;;;;;;21.48;6.95;;;;;;;-1.15;100.00;95070.88;5028219;28;20045;-74
2021/11/21 07:53:55;;;;;;;21.88;6.63;;;;;;;-1.11;100.00;95061.72;5027301;28;20044;-74
2021/11/21 07:56:20;;;;;;;15.98;6.90;;;;;;;-0.97;100.00;95068.41;5018871;28;20128;-74
2021/11/21 07:58:46;;;;;;;13.48;6.32;;;;;;;-0.75;100.00;95060.31;5015348;28;20049;-73
2021/11/21 08:01:11;;;;;;;12.48;6.25;;;;;;;-0.80;100.00;95060.16;5026674;28;20124;-73
2021/11/21 08:03:37;;;;;;;14.35;6.82;;;;;;;-0.58;100.00;95056.22;5010140;28;20038;-74
2021/11/21 08:06:03;;;;;;;10.65;5.75;;;;;;;-0.49;100.00;95050.78;5025497;28;20049;-76
2021/11/21 08:08:29;;;;;;;15.32;6.57;;;;;;;-0.41;100.00;95060.88;5018426;28;20514;-74
2021/11/21 08:10:55;;;;;;;16.15;6.30;;;;;;;-0.33;100.00;95047.69;5026063;28;20045;-74
2021/11/21 08:13:20;;;;;;;10.88;5.57;;;;;;;-0.37;100.00;95051.69;5027421;28;20049;-74
2021/11/21 08:15:47;;;;;;;11.75;6.18;;;;;;;-0.20;100.00;95052.75;5018075;28;20053;-74
2021/11/21 08:18:16;;;;;;;13.63;6.38;;;;;;;-0.13;100.00;95046.72;5026604;28;20046;-74
2021/11/21 08:20:41;;;;;;;10.82;6.15;;;;;;;-0.08;100.00;95054.63;5026409;28;20042;-75
2021/11/21 08:23:07;;;;;;;12.50;5.93;;;;;;;0.11;100.00;95053.63;5026646;28;20115;-75
2021/11/21 08:25:32;;;;;;;16.10;6.35;;;;;;;0.16;100.00;95046.03;5025255;28;20514;-75
2021/11/21 08:27:58;;;;;;;14.13;6.07;;;;;;;0.31;100.00;95048.25;5022556;28;20052;-76
2021/11/21 08:30:24;;;;;;;10.85;5.85;;;;;;;0.46;100.00;95045.31;5027435;28;20116;-75
2021/11/21 08:32:50;;;;;;;12.63;5.63;;;;;;;0.55;100.00;95042.41;5027594;28;20414;-75
2021/11/21 08:35:16;;;;;;;12.02;6.07;;;;;;;0.58;100.00;95044.59;5026309;28;20152;-76
2021/11/21 08:37:42;;;;;;;9.85;5.10;;;;;;;0.68;100.00;95037.09;5024024;28;20495;-75
2021/11/21 08:40:09;;;;;;;10.27;5.30;;;;;;;0.71;100.00;95044.41;5025237;28;20048;-75
2021/11/21 08:42:36;;;;;;;12.90;5.88;;;;;;;0.22;100.00;95038.44;5025531;28;20049;-73
2021/11/21 08:45:06;;;;;;;9.82;5.65;;;;;;;0.47;100.00;95036.53;5022325;28;20096;-75
2021/11/21 08:47:31;;;;;;;8.63;4.78;;;;;;;0.80;100.00;95043.09;5031393;28;20576;-76
2021/11/21 08:49:57;;;;;;;9.98;5.55;;;;;;;0.85;100.00;95035.47;5046477;28;20050;-74
2021/11/21 08:52:22;;;;;;;8.93;5.28;;;;;;;1.04;100.00;95031.03;5031483;28;20041;-75
2021/11/21 08:54:48;;;;;;;10.50;5.57;;;;;;;1.00;100.00;95034.28;5030312;28;20406;-76
2021/11/21 08:57:14;;;;;;;8.82;4.68;;;;;;;1.04;100.00;95025.84;5028865;28;20053;-75
2021/11/21 08:59:39;;;;;;;8.93;5.32;;;;;;;1.12;100.00;95022.16;5023290;28;20074;-75
2021/11/21 09:02:05;;;;;;;8.68;4.65;;;;;;;1.15;100.00;95026.91;5029103;28;20045;-73
2021/11/21 09:04:30;;;;;;;10.00;5.82;;;;;;;1.11;100.00;95030.94;5031663;28;20041;-74
2021/11/21 09:06:56;;;;;;;11.27;5.82;;;;;;;1.31;100.00;95029.88;5030468;28;20049;-75
2021/11/21 09:09:22;;;;;;;9.68;5.53;;;;;;;1.45;100.00;95028.66;5031304;28;20045;-75
2021/11/21 09:11:47;;;;;;;10.82;5.55;;;;;;;1.61;100.00;95029.00;5031373;28;20045;-74
2021/11/21 09:14:14;;;;;;;10.65;5.65;;;;;;;1.67;100.00;95017.75;5030805;28;20041;-75
2021/11/21 09:16:41;;;;;;;10.75;5.63;;;;;;;1.78;100.00;95029.94;5029636;28;20061;-76
2021/11/21 09:19:06;;;;;;;9.95;5.57;;;;;;;1.86;100.00;95026.97;5023398;28;20530;-75
2021/11/21 09:21:32;;;;;;;9.95;5.80;;;;;;;1.93;100.00;95026.09;5028653;28;20046;-75
2021/11/21 09:23:58;;;;;;;10.07;5.85;;;;;;;1.97;100.00;95027.19;5030044;28;20407;-74
2021/11/21 09:26:26;;;;;;;11.38;6.72;;;;;;;2.23;100.00;95020.75;5030719;28;20404;-75
2021/11/21 09:28:51;;;;;;;10.07;5.90;;;;;;;2.49;100.00;95014.25;5029053;28;20069;-75
2021/11/21 09:31:17;;;;;;;9.50;5.88;;;;;;;3.82;95.41;95004.50;5031020;28;20216;-77
2021/11/21 09:33:42;;;;;;;8.77;5.32;;;;;;;5.41;88.10;95002.13;5030465;28;20459;-74
2021/11/21 09:36:10;;;;;;;8.00;5.03;;;;;;;6.44;81.07;94998.34;5030048;28;20048;-75
2021/11/21 09:38:36;;;;;;;7.65;4.72;;;;;;;6.73;78.59;95001.31;5029166;28;20049;-77
2021/11/21 09:41:02;;;;;;;10.00;5.20;;;;;;;7.43;76.74;94987.81;5018943;28;20049;-76
2021/11/21 09:43:28;;;;;;;6.40;3.90;;;;;;;7.41;75.24;94989.94;5019148;28;20037;-76
2021/11/21 09:45:53;;;;;;;9.82;4.78;;;;;;;7.55;75.94;94978.91;5029861;28;20048;-76
2021/11/21 09:48:19;;;;;;;7.60;4.93;;;;;;;7.94;74.56;94988.81;5029047;28;20048;-75
2021/11/21 09:50:45;;;;;;;9.98;5.10;;;;;;;8.47;72.06;94978.75;5026934;28;20811;-76
2021/11/21 09:53:13;;;;;;;7.10;4.68;;;;;;;8.45;72.65;94978.25;5029822;28;20045;-76
2021/11/21 09:55:39;;;;;;;7.00;4.70;;;;;;;8.75;69.62;94988.84;5029589;28;20049;-73
2021/11/21 09:58:06;;;;;;;6.90;4.30;;;;;;;10.10;67.73;94982.34;5029736;28;20056;-74
2021/11/21 10:00:32;;;;;;;8.68;4.32;;;;;;;9.04;69.97;94981.09;5018042;28;20631;-76
2021/11/21 10:03:03;;;;;;;6.85;4.43;;;;;;;9.15;71.12;94982.59;5021427;28;20048;-75
2021/11/21 10:05:32;;;;;;;7.35;4.57;;;;;;;9.27;70.33;94978.84;5025724;28;20676;-74
2021/11/21 10:08:22;;;;;;;7.35;4.45;;;;;;;10.40;63.38;94972.56;5024300;28;20500;-74
2021/11/21 10:11:01;;;;;;;7.25;4.25;;;;;;;10.86;60.94;94966.75;5010933;28;20583;-74
2021/11/21 10:13:45;;;;;;;8.27;4.10;;;;;;;9.70;62.77;94965.91;5029028;28;20049;-74
2021/11/21 10:16:20;;;;;;;8.27;4.68;;;;;;;10.51;61.08;94963.50;5029114;28;20045;-74
2021/11/21 10:18:57;;;;;;;8.15;4.47;;;;;;;11.70;58.13;94959.19;5029579;28;20048;-75
2021/11/21 10:21:27;;;;;;;8.20;4.68;;;;;;;12.07;56.67;94954.88;5027845;28;20438;-74
2021/11/21 10:24:24;;;;;;;6.38;4.20;;;;;;;11.73;56.20;94953.31;5028597;28;20053;-76
2021/11/21 10:27:07;;;;;;;8.13;4.20;;;;;;;12.58;53.49;94940.69;5025930;28;20050;-75
2021/11/21 10:29:40;;;;;;;6.65;4.07;;;;;;;12.87;53.03;94947.47;5024802;28;20422;-77
2021/11/21 10:32:18;;;;;;;8.30;4.30;;;;;;;12.46;55.00;94941.19;5028952;28;20072;-77
2021/11/21 10:34:51;;;;;;;6.35;4.18;;;;;;;13.30;51.96;94935.69;5028694;28;20049;-76
2021/11/21 10:37:18;;;;;;;7.70;4.82;;;;;;;12.91;53.02;94935.25;5026949;28;20052;-76
2021/11/21 10:39:46;;;;;;;7.63;4.70;;;;;;;13.17;53.19;94935.47;5044270;28;20060;-76
2021/11/21 10:42:13;;;;;;;6.90;4.25;;;;;;;13.25;51.34;94936.59;5018707;28;20454;-76
2021/11/21 10:44:48;;;;;;;12.30;5.20;;;;;;;13.03;49.95;94928.66;5017646;28;20041;-82
2021/11/21 10:47:14;;;;;;;8.40;4.90;;;;;;;11.68;54.26;94940.22;5028524;28;20033;-73
2021/11/21 10:49:40;;;;;;;8.70;5.30;;;;;;;12.93;52.84;94929.66;5022709;28;20057;-72
2021/11/21 10:52:10;;;;;;;10.32;5.07;;;;;;;13.79;52.37;94922.66;5016056;28;20098;-72
2021/11/21 10:54:41;;;;;;;8.02;4.65;;;;;;;13.77;50.88;94922.94;5023736;28;20052;-75
2021/11/21 10:57:10;;;;;;;9.05;4.80;;;;;;;13.64;50.38;94916.66;5027348;28;20124;-72
2021/11/21 10:59:36;;;;;;;8.85;5.15;;;;;;;13.79;51.36;94912.06;5024611;28;20558;-75
2021/11/21 11:02:14;;;;;;;8.68;4.90;;;;;;;14.31;50.52;94912.28;5021695;28;20045;-79
2021/11/21 11:05:08;;;;;;;10.35;4.97;;;;;;;14.11;48.31;94902.25;5025767;28;20080;-70
2021/11/21 11:07:41;;;;;;;9.15;5.43;;;;;;;11.90;57.57;94895.53;5025017;28;20048;-70
2021/11/21 11:10:11;;;;;;;10.18;5.22;;;;;;;13.23;52.89;94890.41;5024077;28;20045;-70
2021/11/21 11:12:38;;;;;;;8.77;5.30;;;;;;;13.31;52.22;94887.84;5028266;28;20057;-69
2021/11/21 11:15:04;;;;;;;7.80;5.15;;;;;;;13.96;50.65;94896.25;5018380;28;20599;-74
2021/11/21 11:17:30;;;;;;;9.38;5.55;;;;;;;12.71;51.51;94898.72;5015174;28;20044;-70
2021/11/21 11:20:01;;;;;;;9.23;5.93;;;;;;;13.77;50.59;94893.09;5024594;28;20045;-69
2021/11/21 11:22:28;;;;;;;10.05;6.32;;;;;;;13.59;51.74;94885.09;5027237;28;20054;-67